createdAt,value
2019-03-18T00:00:20.807Z,987.59
2019-03-18T00:01:20.789Z,987.60
2019-03-18T00:02:20.778Z,987.59
2019-03-18T00:03:20.762Z,987.56
2019-03-18T00:04:20.756Z,987.54
2019-03-18T00:05:20.757Z,987.52
2019-03-18T00:06:20.731Z,987.57
2019-03-18T00:07:20.721Z,987.60
2019-03-18T00:08:20.707Z,987.63
2019-03-18T00:09:20.699Z,987.62
2019-03-18T00:10:20.681Z,987.50
2019-03-18T00:11:27.233Z,987.53
2019-03-18T00:12:20.663Z,987.56
2019-03-18T00:13:20.650Z,987.61
2019-03-18T00:14:20.645Z,987.59
2019-03-18T00:15:20.675Z,987.56
2019-03-18T00:16:20.613Z,987.62
2019-03-18T00:17:20.606Z,987.48
2019-03-18T00:18:20.591Z,987.54
2019-03-18T00:19:20.584Z,987.51
2019-03-18T00:20:20.570Z,987.47
2019-03-18T00:21:20.596Z,987.42
2019-03-18T00:22:20.542Z,987.42
2019-03-18T00:23:20.582Z,987.49
2019-03-18T00:24:20.520Z,987.45
2019-03-18T00:25:20.514Z,987.49
2019-03-18T00:26:20.499Z,987.45
2019-03-18T00:27:20.527Z,987.44
2019-03-18T00:28:20.475Z,987.47
2019-03-18T00:29:20.467Z,987.51
2019-03-18T00:30:20.458Z,987.49
2019-03-18T00:31:20.447Z,987.45
2019-03-18T00:32:20.433Z,987.44
2019-03-18T00:33:20.456Z,987.51
2019-03-18T00:34:20.409Z,987.55
2019-03-18T00:35:20.393Z,987.54
2019-03-18T00:36:20.388Z,987.46
2019-03-18T00:37:20.376Z,987.51
2019-03-18T00:38:20.366Z,987.44
2019-03-18T00:39:20.389Z,987.52
2019-03-18T00:40:20.347Z,987.46
2019-03-18T00:41:20.330Z,987.46
2019-03-18T00:42:20.314Z,987.46
2019-03-18T00:43:26.475Z,987.44
2019-03-18T00:44:20.293Z,987.44
2019-03-18T00:45:20.295Z,987.40
2019-03-18T00:46:20.271Z,987.37
2019-03-18T00:47:20.268Z,987.39
2019-03-18T00:48:20.284Z,987.41
2019-03-18T00:49:20.240Z,987.38
2019-03-18T00:50:20.226Z,987.35
2019-03-18T00:51:20.217Z,987.40
2019-03-18T00:52:20.203Z,987.34
2019-03-18T00:53:20.196Z,987.37
2019-03-18T00:54:20.212Z,987.38
2019-03-18T00:55:20.165Z,987.36
2019-03-18T00:56:20.155Z,987.34
2019-03-18T00:57:20.149Z,987.37
2019-03-18T00:58:20.144Z,987.36
2019-03-18T00:59:20.117Z,987.41
2019-03-18T01:00:20.122Z,987.40
2019-03-18T01:01:20.099Z,987.37
2019-03-18T01:02:20.083Z,987.42
2019-03-18T01:03:20.076Z,987.45
2019-03-18T01:04:20.062Z,987.39
2019-03-18T01:05:20.062Z,987.41
2019-03-18T01:06:20.048Z,987.46
2019-03-18T01:07:20.025Z,987.44
2019-03-18T01:08:20.022Z,987.39
2019-03-18T01:09:20.006Z,987.39
2019-03-18T01:10:19.997Z,987.41
2019-03-18T01:11:20.025Z,987.34
2019-03-18T01:12:19.978Z,987.36
2019-03-18T01:13:19.965Z,987.38
2019-03-18T01:14:19.948Z,987.35
2019-03-18T01:15:28.345Z,987.37
2019-03-18T01:16:19.923Z,987.35
2019-03-18T01:17:19.946Z,987.41
2019-03-18T01:18:19.902Z,987.42
2019-03-18T01:19:19.888Z,987.42
2019-03-18T01:20:19.878Z,987.39
2019-03-18T01:21:19.870Z,987.39
2019-03-18T01:22:19.863Z,987.38
2019-03-18T01:23:19.920Z,987.35
2019-03-18T01:24:19.839Z,987.32
2019-03-18T01:25:19.826Z,987.29
2019-03-18T01:26:19.812Z,987.31
2019-03-18T01:27:19.798Z,987.30
2019-03-18T01:28:19.789Z,987.29
2019-03-18T01:29:19.784Z,987.28
2019-03-18T01:30:19.762Z,987.28
2019-03-18T01:31:19.750Z,987.23
2019-03-18T01:32:19.746Z,987.23
2019-03-18T01:33:19.727Z,987.25
2019-03-18T01:34:19.744Z,987.26
2019-03-18T01:35:19.713Z,987.27
2019-03-18T01:36:19.694Z,987.28
2019-03-18T01:37:19.688Z,987.26
2019-03-18T01:38:19.672Z,987.23
2019-03-18T01:39:19.668Z,987.27
2019-03-18T01:40:19.690Z,987.21
2019-03-18T01:41:19.638Z,987.29
2019-03-18T01:42:19.632Z,987.24
2019-03-18T01:43:19.632Z,987.26
2019-03-18T01:44:19.609Z,987.34
2019-03-18T01:45:19.599Z,987.35
2019-03-18T01:46:19.657Z,987.37
2019-03-18T01:47:25.663Z,987.33
2019-03-18T01:48:19.634Z,987.33
2019-03-18T01:49:19.549Z,987.31
2019-03-18T01:50:19.539Z,987.28
2019-03-18T01:51:19.523Z,987.29
2019-03-18T01:52:19.521Z,987.21
2019-03-18T01:53:19.501Z,987.21
2019-03-18T01:54:19.486Z,987.18
2019-03-18T01:55:19.474Z,987.15
2019-03-18T01:56:19.485Z,987.15
2019-03-18T01:57:19.457Z,987.12
2019-03-18T01:58:19.441Z,987.00
2019-03-18T01:59:19.438Z,987.00
2019-03-18T02:00:19.421Z,986.98
2019-03-18T02:01:19.414Z,986.97
2019-03-18T02:02:19.436Z,986.94
2019-03-18T02:03:19.436Z,986.90
2019-03-18T02:04:19.373Z,986.88
2019-03-18T02:05:19.364Z,986.90
2019-03-18T02:06:19.349Z,986.94
2019-03-18T02:07:19.340Z,986.89
2019-03-18T02:08:19.337Z,986.98
2019-03-18T02:09:19.316Z,986.98
2019-03-18T02:10:19.314Z,986.85
2019-03-18T02:11:19.296Z,986.91
2019-03-18T02:12:19.282Z,986.93
2019-03-18T02:13:19.311Z,986.92
2019-03-18T02:14:19.263Z,986.91
2019-03-18T02:15:19.249Z,986.88
2019-03-18T02:16:19.243Z,986.81
2019-03-18T02:17:19.225Z,986.80
2019-03-18T02:18:19.210Z,986.72
2019-03-18T02:19:25.805Z,986.77
2019-03-18T02:20:20.002Z,986.73
2019-03-18T02:21:19.177Z,986.84
2019-03-18T02:22:19.195Z,986.77
2019-03-18T02:23:19.153Z,986.76
2019-03-18T02:24:19.148Z,986.71
2019-03-18T02:25:19.150Z,986.71
2019-03-18T02:26:19.121Z,986.62
2019-03-18T02:27:19.111Z,986.70
2019-03-18T02:28:19.095Z,986.61
2019-03-18T02:29:19.091Z,986.66
2019-03-18T02:30:19.268Z,986.69
2019-03-18T02:31:19.064Z,986.73
2019-03-18T02:32:19.050Z,986.92
2019-03-18T02:33:19.043Z,986.91
2019-03-18T02:34:19.038Z,986.97
2019-03-18T02:35:19.022Z,987.02
2019-03-18T02:36:19.049Z,986.99
2019-03-18T02:37:18.994Z,987.06
2019-03-18T02:38:19.056Z,987.05
2019-03-18T02:39:18.984Z,987.04
2019-03-18T02:40:18.984Z,986.97
2019-03-18T02:41:18.945Z,986.88
2019-03-18T02:42:18.979Z,986.97
2019-03-18T02:43:18.924Z,986.84
2019-03-18T02:44:18.920Z,986.75
2019-03-18T02:45:18.900Z,986.73
2019-03-18T02:46:18.894Z,986.77
2019-03-18T02:47:18.882Z,986.72
2019-03-18T02:48:18.874Z,986.82
2019-03-18T02:49:18.865Z,986.79
2019-03-18T02:50:18.850Z,986.89
2019-03-18T02:51:25.822Z,986.80
2019-03-18T02:52:18.863Z,986.80
2019-03-18T02:53:18.814Z,986.91
2019-03-18T02:54:18.803Z,986.77
2019-03-18T02:55:18.791Z,986.75
2019-03-18T02:56:18.774Z,986.76
2019-03-18T02:57:18.768Z,986.77
2019-03-18T02:58:18.797Z,986.79
2019-03-18T02:59:18.743Z,986.72
2019-03-18T03:00:18.737Z,986.65
2019-03-18T03:01:18.718Z,986.63
2019-03-18T03:02:18.717Z,986.56
2019-03-18T03:03:18.792Z,986.48
2019-03-18T03:04:18.704Z,986.43
2019-03-18T03:05:18.701Z,986.45
2019-03-18T03:06:18.670Z,986.39
2019-03-18T03:07:18.650Z,986.46
2019-03-18T03:08:18.637Z,986.43
2019-03-18T03:09:18.659Z,986.48
2019-03-18T03:10:18.788Z,986.54
2019-03-18T03:11:18.719Z,986.64
2019-03-18T03:12:18.597Z,986.65
2019-03-18T03:13:18.586Z,986.74
2019-03-18T03:14:18.576Z,986.78
2019-03-18T03:15:18.567Z,986.75
2019-03-18T03:16:26.305Z,986.77
2019-03-18T03:17:21.612Z,986.80
2019-03-18T03:18:18.529Z,986.82
2019-03-18T03:19:18.521Z,986.84
2019-03-18T03:20:18.513Z,986.92
2019-03-18T03:21:18.494Z,986.92
2019-03-18T03:22:18.482Z,986.92
2019-03-18T03:23:24.560Z,986.96
2019-03-18T03:24:18.470Z,986.98
2019-03-18T03:25:18.448Z,987.00
2019-03-18T03:26:18.431Z,987.03
2019-03-18T03:27:18.423Z,987.10
2019-03-18T03:28:18.421Z,987.08
2019-03-18T03:29:18.415Z,987.08
2019-03-18T03:30:18.391Z,987.09
2019-03-18T03:31:18.389Z,987.07
2019-03-18T03:32:18.367Z,986.98
2019-03-18T03:33:18.400Z,987.01
2019-03-18T03:34:18.346Z,986.98
2019-03-18T03:35:18.357Z,986.99
2019-03-18T03:36:18.323Z,987.01
2019-03-18T03:37:18.322Z,986.98
2019-03-18T03:38:18.297Z,987.01
2019-03-18T03:39:18.288Z,986.98
2019-03-18T03:40:18.289Z,987.00
2019-03-18T03:41:18.725Z,986.97
2019-03-18T03:42:18.256Z,986.89
2019-03-18T03:43:18.284Z,986.89
2019-03-18T03:44:18.231Z,986.94
2019-03-18T03:45:18.223Z,986.98
2019-03-18T03:46:18.206Z,987.00
2019-03-18T03:47:18.196Z,986.98
2019-03-18T03:48:18.183Z,986.93
2019-03-18T03:49:18.181Z,986.90
2019-03-18T03:50:18.162Z,986.93
2019-03-18T03:51:18.173Z,986.93
2019-03-18T03:52:18.134Z,986.99
2019-03-18T03:53:18.126Z,987.04
2019-03-18T03:54:18.157Z,987.03
2019-03-18T03:55:24.199Z,987.02
2019-03-18T03:56:18.094Z,987.03
2019-03-18T03:57:18.080Z,986.96
2019-03-18T03:58:18.074Z,986.98
2019-03-18T03:59:18.057Z,987.01
2019-03-18T04:00:18.083Z,987.05
2019-03-18T04:01:18.034Z,987.01
2019-03-18T04:02:18.025Z,986.99
2019-03-18T04:03:18.014Z,987.07
2019-03-18T04:04:18.001Z,987.05
2019-03-18T04:05:17.993Z,987.11
2019-03-18T04:06:18.077Z,987.05
2019-03-18T04:07:17.969Z,987.08
2019-03-18T04:08:17.955Z,987.00
2019-03-18T04:09:17.938Z,987.07
2019-03-18T04:10:17.946Z,987.12
2019-03-18T04:11:17.937Z,987.08
2019-03-18T04:12:17.923Z,987.21
2019-03-18T04:13:17.921Z,987.22
2019-03-18T04:14:17.881Z,987.29
2019-03-18T04:15:17.880Z,987.22
2019-03-18T04:16:17.863Z,987.22
2019-03-18T04:17:17.847Z,987.27
2019-03-18T04:18:17.850Z,987.31
2019-03-18T04:19:17.834Z,987.31
2019-03-18T04:20:17.820Z,987.33
2019-03-18T04:21:17.805Z,987.28
2019-03-18T04:22:17.796Z,987.30
2019-03-18T04:23:17.786Z,987.30
2019-03-18T04:24:17.785Z,987.41
2019-03-18T04:25:17.767Z,987.35
2019-03-18T04:26:17.748Z,987.32
2019-03-18T04:27:24.945Z,987.35
2019-03-18T04:28:17.727Z,987.39
2019-03-18T04:29:17.716Z,987.38
2019-03-18T04:30:17.948Z,987.51
2019-03-18T04:31:17.694Z,987.52
2019-03-18T04:32:17.679Z,987.53
2019-03-18T04:33:17.667Z,987.43
2019-03-18T04:34:17.668Z,987.32
2019-03-18T04:35:17.646Z,987.35
2019-03-18T04:36:17.674Z,987.31
2019-03-18T04:37:17.615Z,987.42
2019-03-18T04:38:17.607Z,987.49
2019-03-18T04:39:17.594Z,987.32
2019-03-18T04:40:17.588Z,987.24
2019-03-18T04:41:17.572Z,987.12
2019-03-18T04:42:17.567Z,987.15
2019-03-18T04:43:17.623Z,987.16
2019-03-18T04:44:17.538Z,987.20
2019-03-18T04:45:17.533Z,987.30
2019-03-18T04:46:17.514Z,987.28
2019-03-18T04:47:17.523Z,987.34
2019-03-18T04:48:17.493Z,987.35
2019-03-18T04:49:17.478Z,987.37
2019-03-18T04:50:17.490Z,987.36
2019-03-18T04:51:17.463Z,987.44
2019-03-18T04:52:17.447Z,987.50
2019-03-18T04:53:17.481Z,987.64
2019-03-18T04:54:17.422Z,987.64
2019-03-18T04:55:17.416Z,987.61
2019-03-18T04:56:17.405Z,987.73
2019-03-18T04:57:17.387Z,987.60
2019-03-18T04:58:17.377Z,987.58
2019-03-18T04:59:23.902Z,987.58
2019-03-18T05:00:17.355Z,987.58
2019-03-18T05:01:17.340Z,987.53
2019-03-18T05:02:17.328Z,987.63
2019-03-18T05:03:17.321Z,987.60
2019-03-18T05:04:17.311Z,987.70
2019-03-18T05:05:17.301Z,987.73
2019-03-18T05:06:17.357Z,987.75
2019-03-18T05:07:17.277Z,987.76
2019-03-18T05:08:17.263Z,987.84
2019-03-18T05:09:17.253Z,987.86
2019-03-18T05:10:17.257Z,987.87
2019-03-18T05:11:17.264Z,987.99
2019-03-18T05:12:17.216Z,987.98
2019-03-18T05:13:17.206Z,987.90
2019-03-18T05:14:17.201Z,987.86
2019-03-18T05:15:17.183Z,987.90
2019-03-18T05:16:17.170Z,987.96
2019-03-18T05:17:26.163Z,987.95
2019-03-18T05:18:18.149Z,987.89
2019-03-18T05:19:17.140Z,987.91
2019-03-18T05:20:17.169Z,987.99
2019-03-18T05:21:17.115Z,987.96
2019-03-18T05:22:17.103Z,987.98
2019-03-18T05:23:17.134Z,988.02
2019-03-18T05:24:17.080Z,988.01
2019-03-18T05:25:17.071Z,988.00
2019-03-18T05:26:17.063Z,987.94
2019-03-18T05:27:17.046Z,987.97
2019-03-18T05:28:17.030Z,987.95
2019-03-18T05:29:17.027Z,988.04
2019-03-18T05:30:17.012Z,988.06
2019-03-18T05:31:23.383Z,987.98
2019-03-18T05:32:16.990Z,988.02
2019-03-18T05:33:17.010Z,988.00
2019-03-18T05:34:16.961Z,988.01
2019-03-18T05:35:16.948Z,987.97
2019-03-18T05:36:16.941Z,987.97
2019-03-18T05:37:16.930Z,987.92
2019-03-18T05:38:16.925Z,988.01
2019-03-18T05:39:16.913Z,987.99
2019-03-18T05:40:16.906Z,988.04
2019-03-18T05:41:16.888Z,988.02
2019-03-18T05:42:16.869Z,988.04
2019-03-18T05:43:16.869Z,988.05
2019-03-18T05:44:16.895Z,988.08
2019-03-18T05:45:16.839Z,988.16
2019-03-18T05:46:16.825Z,988.22
2019-03-18T05:47:16.812Z,988.18
2019-03-18T05:48:16.801Z,988.13
2019-03-18T05:49:16.789Z,988.09
2019-03-18T05:50:16.818Z,988.12
2019-03-18T05:51:16.772Z,988.03
2019-03-18T05:52:16.754Z,988.03
2019-03-18T05:53:16.748Z,988.01
2019-03-18T05:54:16.732Z,988.08
2019-03-18T05:55:16.722Z,988.08
2019-03-18T05:56:16.727Z,988.06
2019-03-18T05:57:16.705Z,988.14
2019-03-18T05:58:16.687Z,988.10
2019-03-18T05:59:16.680Z,988.11
2019-03-18T06:00:16.675Z,988.32
2019-03-18T06:01:16.676Z,988.29
2019-03-18T06:02:16.646Z,988.21
2019-03-18T06:03:23.016Z,988.11
2019-03-18T06:04:16.620Z,988.28
2019-03-18T06:05:16.611Z,988.18
2019-03-18T06:06:16.597Z,988.11
2019-03-18T06:07:16.627Z,988.12
2019-03-18T06:08:16.579Z,988.15
2019-03-18T06:09:16.563Z,988.08
2019-03-18T06:10:16.548Z,988.12
2019-03-18T06:11:16.550Z,988.11
2019-03-18T06:12:16.528Z,988.03
2019-03-18T06:13:16.559Z,988.09
2019-03-18T06:14:16.509Z,988.01
2019-03-18T06:15:16.491Z,988.04
2019-03-18T06:16:16.486Z,988.12
2019-03-18T06:17:16.474Z,988.14
2019-03-18T06:18:16.460Z,988.11
2019-03-18T06:19:16.465Z,988.15
2019-03-18T06:20:16.442Z,988.26
2019-03-18T06:21:16.428Z,988.22
2019-03-18T06:22:16.417Z,988.30
2019-03-18T06:23:16.402Z,988.37
2019-03-18T06:24:16.394Z,988.39
2019-03-18T06:25:16.425Z,988.47
2019-03-18T06:26:16.367Z,988.36
2019-03-18T06:27:16.361Z,988.37
2019-03-18T06:28:16.343Z,988.24
2019-03-18T06:29:16.334Z,988.30
2019-03-18T06:30:16.328Z,988.22
2019-03-18T06:31:16.321Z,988.42
2019-03-18T06:32:16.305Z,988.39
2019-03-18T06:33:16.286Z,988.30
2019-03-18T06:34:16.278Z,988.35
2019-03-18T06:35:22.363Z,988.41
2019-03-18T06:36:16.272Z,988.42
2019-03-18T06:37:16.246Z,988.47
2019-03-18T06:38:16.231Z,988.40
2019-03-18T06:39:16.237Z,988.43
2019-03-18T06:40:16.208Z,988.39
2019-03-18T06:41:16.199Z,988.35
2019-03-18T06:42:18.582Z,988.44
2019-03-18T06:43:16.177Z,988.53
2019-03-18T06:44:16.172Z,988.52
2019-03-18T06:45:16.157Z,988.56
2019-03-18T06:46:16.140Z,988.54
2019-03-18T06:47:16.129Z,988.48
2019-03-18T06:48:16.129Z,988.49
2019-03-18T06:49:16.104Z,988.58
2019-03-18T06:50:16.093Z,988.55
2019-03-18T06:51:16.079Z,988.59
2019-03-18T06:52:16.069Z,988.67
2019-03-18T06:53:16.068Z,988.65
2019-03-18T06:54:16.050Z,988.56
2019-03-18T06:55:16.042Z,988.66
2019-03-18T06:56:16.021Z,988.78
2019-03-18T06:57:16.013Z,988.65
2019-03-18T06:58:16.104Z,988.71
2019-03-18T06:59:15.992Z,988.81
2019-03-18T07:00:15.983Z,988.88
2019-03-18T07:01:15.969Z,988.88
2019-03-18T07:02:15.953Z,988.93
2019-03-18T07:03:15.946Z,989.00
2019-03-18T07:04:15.964Z,989.06
2019-03-18T07:05:15.920Z,989.03
2019-03-18T07:06:15.910Z,989.02
2019-03-18T07:07:22.284Z,988.95
2019-03-18T07:08:15.891Z,988.92
2019-03-18T07:09:15.881Z,988.92
2019-03-18T07:10:15.877Z,988.92
2019-03-18T07:11:15.851Z,989.02
2019-03-18T07:12:15.841Z,989.02
2019-03-18T07:13:15.832Z,988.93
2019-03-18T07:14:15.815Z,989.00
2019-03-18T07:15:15.819Z,989.01
2019-03-18T07:16:15.792Z,989.08
2019-03-18T07:17:15.787Z,989.09
2019-03-18T07:18:18.599Z,989.10
2019-03-18T07:19:15.760Z,989.10
2019-03-18T07:20:15.783Z,989.17
2019-03-18T07:21:15.733Z,989.05
2019-03-18T07:22:15.724Z,989.09
2019-03-18T07:23:15.711Z,989.09
2019-03-18T07:24:15.703Z,989.12
2019-03-18T07:25:15.690Z,989.13
2019-03-18T07:26:15.697Z,989.27
2019-03-18T07:27:15.664Z,989.16
2019-03-18T07:28:17.986Z,989.24
2019-03-18T07:29:15.641Z,989.24
2019-03-18T07:30:15.630Z,989.26
2019-03-18T07:31:15.658Z,989.27
2019-03-18T07:32:15.616Z,989.25
2019-03-18T07:33:15.596Z,989.33
2019-03-18T07:34:15.590Z,989.35
2019-03-18T07:35:15.579Z,989.35
2019-03-18T07:36:15.562Z,989.34
2019-03-18T07:37:15.570Z,989.30
2019-03-18T07:38:15.540Z,989.32
2019-03-18T07:39:21.620Z,989.33
2019-03-18T07:40:15.518Z,989.30
2019-03-18T07:41:15.510Z,989.33
2019-03-18T07:42:15.534Z,989.41
2019-03-18T07:43:15.485Z,989.38
2019-03-18T07:44:15.474Z,989.38
2019-03-18T07:45:16.223Z,989.34
2019-03-18T07:46:15.454Z,989.40
2019-03-18T07:47:15.436Z,989.46
2019-03-18T07:48:15.436Z,989.47
2019-03-18T07:49:15.431Z,989.55
2019-03-18T07:50:15.404Z,989.55
2019-03-18T07:51:15.417Z,989.68
2019-03-18T07:52:15.381Z,989.54
2019-03-18T07:53:18.138Z,989.52
2019-03-18T07:54:15.430Z,989.68
2019-03-18T07:55:15.383Z,989.65
2019-03-18T07:56:15.339Z,989.59
2019-03-18T07:57:15.319Z,989.56
2019-03-18T07:58:15.307Z,989.66
2019-03-18T07:59:15.303Z,989.61
2019-03-18T08:00:15.289Z,989.70
2019-03-18T08:01:15.311Z,989.64
2019-03-18T08:02:15.333Z,989.58
2019-03-18T08:03:15.251Z,989.58
2019-03-18T08:04:15.239Z,989.66
2019-03-18T08:05:15.228Z,989.63
2019-03-18T08:06:15.224Z,989.64
2019-03-18T08:07:15.253Z,989.63
2019-03-18T08:08:15.256Z,989.63
2019-03-18T08:09:15.187Z,989.67
2019-03-18T08:10:15.173Z,989.70
2019-03-18T08:11:21.250Z,989.73
2019-03-18T08:12:15.147Z,989.72
2019-03-18T08:13:15.176Z,989.76
2019-03-18T08:14:16.082Z,989.74
2019-03-18T08:15:15.113Z,989.75
2019-03-18T08:16:15.110Z,989.66
2019-03-18T08:17:15.094Z,989.66
2019-03-18T08:18:15.080Z,989.69
2019-03-18T08:19:15.107Z,989.72
2019-03-18T08:20:15.056Z,989.78
2019-03-18T08:21:15.042Z,989.74
2019-03-18T08:22:15.035Z,989.74
2019-03-18T08:23:15.026Z,989.85
2019-03-18T08:24:15.009Z,989.83
2019-03-18T08:25:15.099Z,989.78
2019-03-18T08:26:14.995Z,989.79
2019-03-18T08:27:14.982Z,989.84
2019-03-18T08:28:14.964Z,989.81
2019-03-18T08:29:14.951Z,989.83
2019-03-18T08:30:14.943Z,989.74
2019-03-18T08:31:14.944Z,989.80
2019-03-18T08:32:14.917Z,989.89
2019-03-18T08:33:14.904Z,989.91
2019-03-18T08:34:14.937Z,989.88
2019-03-18T08:35:14.886Z,989.93
2019-03-18T08:36:14.872Z,989.98
2019-03-18T08:37:14.864Z,989.94
2019-03-18T08:38:14.851Z,989.97
2019-03-18T08:39:14.836Z,990.02
2019-03-18T08:40:14.866Z,989.92
2019-03-18T08:41:14.813Z,989.93
2019-03-18T08:42:14.803Z,989.97
2019-03-18T08:43:22.829Z,990.03
2019-03-18T08:44:14.784Z,990.02
2019-03-18T08:45:14.771Z,990.09
2019-03-18T08:46:14.766Z,990.09
2019-03-18T08:47:14.750Z,990.05
2019-03-18T08:48:14.734Z,990.04
2019-03-18T08:49:14.728Z,990.09
2019-03-18T08:50:14.707Z,990.14
2019-03-18T08:51:14.723Z,990.14
2019-03-18T08:52:14.688Z,990.04
2019-03-18T08:53:14.718Z,990.08
2019-03-18T08:54:14.669Z,990.10
2019-03-18T08:55:14.658Z,990.12
2019-03-18T08:56:14.652Z,990.09
2019-03-18T08:57:14.650Z,990.08
2019-03-18T08:58:14.621Z,990.04
2019-03-18T08:59:14.611Z,990.10
2019-03-18T09:00:14.600Z,990.23
2019-03-18T09:01:14.588Z,990.15
2019-03-18T09:02:14.590Z,990.13
2019-03-18T09:03:14.566Z,990.08
2019-03-18T09:04:14.547Z,990.18
2019-03-18T09:05:14.551Z,990.14
2019-03-18T09:06:14.533Z,990.24
2019-03-18T09:07:14.516Z,990.31
2019-03-18T09:08:14.581Z,990.30
2019-03-18T09:09:14.493Z,990.20
2019-03-18T09:10:14.491Z,990.21
2019-03-18T09:11:14.469Z,990.24
2019-03-18T09:12:14.462Z,990.27
2019-03-18T09:13:14.450Z,990.28
2019-03-18T09:14:14.456Z,990.28
2019-03-18T09:15:20.526Z,990.26
2019-03-18T09:16:14.412Z,990.33
2019-03-18T09:17:14.402Z,990.30
2019-03-18T09:18:14.393Z,990.41
2019-03-18T09:19:14.373Z,990.35
2019-03-18T09:20:14.377Z,990.37
2019-03-18T09:21:14.355Z,990.40
2019-03-18T09:22:14.341Z,990.50
2019-03-18T09:23:14.330Z,990.41
2019-03-18T09:24:14.324Z,990.45
2019-03-18T09:25:14.348Z,990.39
2019-03-18T09:26:14.300Z,990.40
2019-03-18T09:27:14.281Z,990.48
2019-03-18T09:28:14.272Z,990.53
2019-03-18T09:29:14.260Z,990.44
2019-03-18T09:30:14.249Z,990.51
2019-03-18T09:31:14.304Z,990.56
2019-03-18T09:32:14.234Z,990.52
2019-03-18T09:33:14.219Z,990.51
2019-03-18T09:34:14.206Z,990.53
2019-03-18T09:35:14.195Z,990.55
2019-03-18T09:36:14.220Z,990.58
2019-03-18T09:37:14.165Z,990.55
2019-03-18T09:38:14.162Z,990.54
2019-03-18T09:39:14.141Z,990.60
2019-03-18T09:40:14.139Z,990.64
2019-03-18T09:41:14.125Z,990.62
2019-03-18T09:42:14.124Z,990.61
2019-03-18T09:43:14.106Z,990.62
2019-03-18T09:44:14.088Z,990.61
2019-03-18T09:45:14.077Z,990.65
2019-03-18T09:46:14.077Z,990.65
2019-03-18T09:47:20.560Z,990.70
2019-03-18T09:48:14.045Z,990.64
2019-03-18T09:49:21.437Z,990.64
2019-03-18T09:50:15.020Z,990.59
2019-03-18T09:51:14.003Z,990.66
2019-03-18T09:52:13.996Z,990.68
2019-03-18T09:53:14.020Z,990.64
2019-03-18T09:54:13.973Z,990.64
2019-03-18T09:55:14.030Z,990.74
2019-03-18T09:56:13.952Z,990.76
2019-03-18T09:57:25.336Z,990.72
2019-03-18T09:58:14.943Z,990.74
2019-03-18T09:59:13.912Z,990.73
2019-03-18T10:00:13.903Z,990.75
2019-03-18T10:01:13.893Z,990.85
2019-03-18T10:02:13.875Z,990.79
2019-03-18T10:03:13.866Z,990.78
2019-03-18T10:04:13.897Z,990.81
2019-03-18T10:05:13.842Z,990.80
2019-03-18T10:06:13.829Z,990.85
2019-03-18T10:07:13.816Z,990.87
2019-03-18T10:08:13.808Z,990.86
2019-03-18T10:09:13.796Z,990.87
2019-03-18T10:10:13.820Z,990.83
2019-03-18T10:11:13.771Z,990.82
2019-03-18T10:12:13.826Z,990.86
2019-03-18T10:13:13.754Z,990.82
2019-03-18T10:14:13.737Z,990.89
2019-03-18T10:15:13.726Z,990.85
2019-03-18T10:16:13.722Z,990.83
2019-03-18T10:17:13.707Z,990.82
2019-03-18T10:18:13.693Z,990.78
2019-03-18T10:19:19.771Z,990.74
2019-03-18T10:20:13.676Z,990.85
2019-03-18T10:21:13.705Z,990.95
2019-03-18T10:22:13.647Z,990.84
2019-03-18T10:23:13.633Z,990.94
2019-03-18T10:24:13.623Z,990.93
2019-03-18T10:25:13.675Z,990.92
2019-03-18T10:26:13.606Z,990.96
2019-03-18T10:27:13.633Z,990.90
2019-03-18T10:28:16.304Z,990.96
2019-03-18T10:29:13.565Z,990.90
2019-03-18T10:30:13.553Z,990.99
2019-03-18T10:31:13.553Z,990.95
2019-03-18T10:32:13.529Z,991.05
2019-03-18T10:33:13.531Z,990.98
2019-03-18T10:34:13.535Z,991.03
2019-03-18T10:35:13.586Z,990.98
2019-03-18T10:36:13.488Z,990.99
2019-03-18T10:37:13.508Z,991.03
2019-03-18T10:38:13.465Z,991.05
2019-03-18T10:39:13.452Z,991.02
2019-03-18T10:40:13.441Z,991.02
2019-03-18T10:41:13.431Z,991.01
2019-03-18T10:42:13.417Z,990.97
2019-03-18T10:43:13.413Z,990.91
2019-03-18T10:44:13.400Z,990.96
2019-03-18T10:45:13.390Z,990.97
2019-03-18T10:46:13.373Z,991.05
2019-03-18T10:47:13.365Z,990.97
2019-03-18T10:48:13.392Z,990.97
2019-03-18T10:49:13.339Z,990.99
2019-03-18T10:50:13.329Z,990.97
2019-03-18T10:51:19.405Z,991.03
2019-03-18T10:52:13.329Z,991.05
2019-03-18T10:53:13.313Z,991.02
2019-03-18T10:54:13.295Z,991.10
2019-03-18T10:55:13.270Z,990.96
2019-03-18T10:56:13.262Z,991.14
2019-03-18T10:57:13.250Z,991.05
2019-03-18T10:58:13.235Z,991.22
2019-03-18T10:59:13.234Z,991.13
2019-03-18T11:00:13.216Z,991.11
2019-03-18T11:01:13.209Z,991.19
2019-03-18T11:02:13.199Z,991.19
2019-03-18T11:03:13.182Z,991.16
2019-03-18T11:04:13.207Z,991.17
2019-03-18T11:05:13.158Z,991.22
2019-03-18T11:06:13.147Z,991.30
2019-03-18T11:07:13.133Z,991.10
2019-03-18T11:08:13.121Z,991.11
2019-03-18T11:09:13.108Z,991.07
2019-03-18T11:10:13.105Z,991.13
2019-03-18T11:11:13.089Z,991.15
2019-03-18T11:12:13.077Z,991.10
2019-03-18T11:13:13.060Z,991.16
2019-03-18T11:14:13.055Z,991.18
2019-03-18T11:15:13.083Z,991.26
2019-03-18T11:16:13.057Z,991.27
2019-03-18T11:17:13.045Z,991.30
2019-03-18T11:18:13.013Z,991.26
2019-03-18T11:19:12.993Z,991.27
2019-03-18T11:20:13.003Z,991.38
2019-03-18T11:21:12.981Z,991.33
2019-03-18T11:22:12.959Z,991.35
2019-03-18T11:23:19.042Z,991.32
2019-03-18T11:24:12.946Z,991.29
2019-03-18T11:25:12.923Z,991.29
2019-03-18T11:26:12.924Z,991.30
2019-03-18T11:27:12.907Z,991.26
2019-03-18T11:28:12.892Z,991.25
2019-03-18T11:29:12.888Z,991.23
2019-03-18T11:30:12.874Z,991.19
2019-03-18T11:31:12.880Z,991.16
2019-03-18T11:32:12.851Z,991.15
2019-03-18T11:33:12.832Z,991.10
2019-03-18T11:34:12.828Z,991.19
2019-03-18T11:35:12.810Z,991.22
2019-03-18T11:36:12.800Z,991.19
2019-03-18T11:37:12.801Z,991.18
2019-03-18T11:38:12.779Z,991.19
2019-03-18T11:39:12.764Z,991.15
2019-03-18T11:40:12.755Z,991.18
2019-03-18T11:41:12.743Z,991.30
2019-03-18T11:42:12.772Z,991.38
2019-03-18T11:43:12.717Z,991.28
2019-03-18T11:44:12.714Z,991.20
2019-03-18T11:45:12.701Z,991.20
2019-03-18T11:46:12.684Z,991.17
2019-03-18T11:47:12.675Z,991.24
2019-03-18T11:48:12.682Z,991.25
2019-03-18T11:49:12.648Z,991.20
2019-03-18T11:50:12.648Z,991.20
2019-03-18T11:51:12.635Z,991.25
2019-03-18T11:52:12.626Z,991.20
2019-03-18T11:53:14.702Z,991.25
2019-03-18T11:54:12.662Z,991.21
2019-03-18T11:55:18.968Z,991.22
2019-03-18T11:56:12.588Z,991.24
2019-03-18T11:57:12.565Z,991.18
2019-03-18T11:58:12.545Z,991.13
2019-03-18T11:59:12.537Z,991.15
2019-03-18T12:00:12.559Z,991.25
2019-03-18T12:01:12.516Z,991.22
2019-03-18T12:02:12.500Z,991.19
2019-03-18T12:03:12.487Z,991.14
2019-03-18T12:04:12.481Z,991.40
2019-03-18T12:05:12.466Z,991.29
2019-03-18T12:06:12.473Z,991.36
2019-03-18T12:07:12.449Z,991.41
2019-03-18T12:08:12.434Z,991.38
2019-03-18T12:09:12.461Z,991.38
2019-03-18T12:10:12.410Z,991.35
2019-03-18T12:11:12.403Z,991.32
2019-03-18T12:12:13.426Z,991.36
2019-03-18T12:13:12.380Z,991.46
2019-03-18T12:14:12.363Z,991.33
2019-03-18T12:15:12.364Z,991.36
2019-03-18T12:16:12.338Z,991.30
2019-03-18T12:17:12.337Z,991.33
2019-03-18T12:18:12.317Z,991.42
2019-03-18T12:19:12.303Z,991.45
2019-03-18T12:20:23.727Z,991.42
2019-03-18T12:21:15.916Z,991.41
2019-03-18T12:22:12.345Z,991.38
2019-03-18T12:23:12.269Z,991.47
2019-03-18T12:24:12.251Z,991.45
2019-03-18T12:25:12.234Z,991.45
2019-03-18T12:26:12.221Z,991.52
2019-03-18T12:27:18.603Z,991.47
2019-03-18T12:28:12.221Z,991.47